Time;durP1;ratioP1;P1;durP2;ratioP2;P2;SDS_P1;SDS_P2;PMS_P1;PMS_P2;Temp;Humidity;BMP_temperature;BMP_pressure;BME280_temperature;BME280_humidity;BME280_pressure;Samples;Min_cycle;Max_cycle;Signal;HPM_P1;HPM_P2
2021/05/01 00:00:56;;;;;;;11.27;5.00;;;;;;;16.36;71.77;98264.69;5126336;27;20053;-70
2021/05/01 00:03:24;;;;;;;10.23;4.90;;;;;;;16.28;72.15;98264.28;5129065;27;20043;-70
2021/05/01 00:05:50;;;;;;;9.43;4.47;;;;;;;16.20;72.55;98271.91;5129103;27;20041;-70
2021/05/01 00:08:15;;;;;;;9.52;5.03;;;;;;;16.18;72.63;98273.81;5129256;27;20039;-69
2021/05/01 00:10:41;;;;;;;7.15;4.55;;;;;;;16.23;72.18;98266.38;5129964;27;20488;-70
2021/05/01 00:13:07;;;;;;;9.27;5.07;;;;;;;16.18;72.30;98255.06;5129051;27;20128;-70
2021/05/01 00:15:33;;;;;;;9.02;4.65;;;;;;;16.16;72.30;98238.19;5125884;27;20043;-70
2021/05/01 00:17:59;;;;;;;8.15;4.68;;;;;;;16.18;72.26;98237.13;5127718;27;20081;-70
2021/05/01 00:20:25;;;;;;;8.95;4.95;;;;;;;16.11;72.26;98235.78;5130416;27;20446;-68
2021/05/01 00:22:51;;;;;;;9.15;4.82;;;;;;;16.09;72.48;98237.69;5128226;27;20096;-68
2021/05/01 00:25:16;;;;;;;9.63;5.00;;;;;;;16.05;72.92;98235.22;5129138;27;20074;-70
2021/05/01 00:27:42;;;;;;;10.40;5.43;;;;;;;15.94;73.09;98239.41;5128719;27;20074;-70
2021/05/01 00:30:10;;;;;;;11.05;4.80;;;;;;;15.84;73.55;98238.22;5126005;27;20123;-69
2021/05/01 00:32:36;;;;;;;8.32;5.43;;;;;;;15.80;73.40;98229.47;5129112;27;20195;-68
2021/05/01 00:35:03;;;;;;;9.10;5.32;;;;;;;15.74;73.47;98221.78;5127270;27;20515;-70
2021/05/01 00:37:29;;;;;;;10.00;5.63;;;;;;;15.70;73.75;98228.25;5128297;27;20039;-70
2021/05/01 00:39:55;;;;;;;13.00;6.15;;;;;;;15.69;73.56;98231.84;5127836;27;20526;-71
2021/05/01 00:42:20;;;;;;;12.70;5.30;;;;;;;15.68;73.73;98223.91;5128922;27;20173;-70
2021/05/01 00:44:46;;;;;;;11.65;5.65;;;;;;;15.66;73.57;98212.41;5126111;27;20053;-70
2021/05/01 00:47:12;;;;;;;9.63;5.40;;;;;;;15.65;73.57;98206.19;5126800;27;20369;-70
2021/05/01 00:49:37;;;;;;;9.48;5.93;;;;;;;15.65;73.60;98198.13;5128839;27;20050;-70
2021/05/01 00:52:05;;;;;;;11.20;5.80;;;;;;;15.65;73.65;98189.25;5128117;27;20044;-68
2021/05/01 00:54:31;;;;;;;15.35;5.93;;;;;;;15.59;73.78;98177.94;5129127;27;20047;-70
2021/05/01 00:56:57;;;;;;;11.20;5.43;;;;;;;15.55;74.12;98183.56;5129391;27;20092;-70
2021/05/01 00:59:23;;;;;;;12.68;5.60;;;;;;;15.52;74.17;98184.56;5129606;27;20420;-70
2021/05/01 01:01:50;;;;;;;9.32;5.35;;;;;;;15.51;74.27;98176.63;5125428;27;20043;-69
2021/05/01 01:04:17;;;;;;;11.80;5.50;;;;;;;15.48;74.54;98172.28;5127676;27;20520;-68
2021/05/01 01:06:43;;;;;;;9.90;5.47;;;;;;;15.45;74.60;98174.28;5128101;27;20041;-71
2021/05/01 01:09:11;;;;;;;8.88;5.40;;;;;;;15.45;74.53;98176.97;5128202;27;20047;-70
2021/05/01 01:11:37;;;;;;;9.98;4.57;;;;;;;15.48;74.48;98166.06;5128600;27;20039;-69
2021/05/01 01:14:04;;;;;;;8.07;4.90;;;;;;;15.48;74.36;98166.06;5127532;27;20047;-69
2021/05/01 01:16:30;;;;;;;9.85;5.07;;;;;;;15.49;73.91;98163.31;5124412;27;20047;-69
2021/05/01 01:18:56;;;;;;;8.07;4.93;;;;;;;15.48;74.04;98168.75;5127996;27;20054;-70
2021/05/01 01:21:22;;;;;;;11.52;5.15;;;;;;;15.48;74.05;98171.44;5128744;27;20040;-69
2021/05/01 01:23:49;;;;;;;7.60;4.90;;;;;;;15.45;74.12;98168.94;5129330;27;20475;-69
2021/05/01 01:26:15;;;;;;;8.98;4.80;;;;;;;15.46;73.83;98176.91;5129326;27;20058;-70
2021/05/01 01:28:41;;;;;;;9.45;4.70;;;;;;;15.45;73.97;98169.78;5126232;27;20043;-70
2021/05/01 01:31:07;;;;;;;9.68;4.80;;;;;;;15.44;74.00;98169.88;5125929;27;20042;-69
2021/05/01 01:33:33;;;;;;;10.45;4.60;;;;;;;15.46;73.94;98167.97;5128743;27;20054;-70
2021/05/01 01:35:59;;;;;;;9.50;4.55;;;;;;;15.46;73.87;98168.88;5128980;27;20528;-69
2021/05/01 01:38:25;;;;;;;10.60;4.80;;;;;;;15.45;73.64;98166.25;5127132;27;20130;-69
2021/05/01 01:40:51;;;;;;;9.23;4.68;;;;;;;15.48;73.68;98171.44;5129047;27;20070;-72
2021/05/01 01:43:18;;;;;;;8.35;4.50;;;;;;;15.48;73.59;98166.94;5128118;27;20084;-69
2021/05/01 01:45:44;;;;;;;8.77;4.53;;;;;;;15.53;73.59;98172.06;5125231;27;20138;-72
2021/05/01 01:48:10;;;;;;;11.18;4.95;;;;;;;15.61;73.08;98172.47;5128746;27;20145;-71
2021/05/01 01:50:36;;;;;;;9.05;4.20;;;;;;;15.70;72.68;98169.28;5129081;27;20070;-69
2021/05/01 01:55:47;;;;;;;8.70;4.55;;;;;;;15.84;72.03;98159.59;5114301;27;20139;-69
2021/05/01 01:58:14;;;;;;;12.77;4.97;;;;;;;15.85;72.14;98159.47;5128934;27;20153;-69
2021/05/01 02:00:40;;;;;;;7.05;4.07;;;;;;;15.86;72.16;98160.38;5126067;27;20058;-69
2021/05/01 02:03:06;;;;;;;9.68;4.50;;;;;;;15.82;71.99;98152.50;5126269;27;20130;-68
2021/05/01 02:05:31;;;;;;;7.63;4.50;;;;;;;15.75;72.34;98148.44;5128083;27;20117;-70
2021/05/01 02:07:57;;;;;;;7.63;4.18;;;;;;;15.77;72.34;98156.41;5127421;27;20074;-69
2021/05/01 02:10:24;;;;;;;10.68;4.72;;;;;;;15.75;72.68;98152.94;5127634;27;20050;-68
2021/05/01 02:12:50;;;;;;;10.57;4.57;;;;;;;15.73;72.58;98158.41;5126302;27;20031;-70
2021/05/01 02:15:18;;;;;;;9.40;4.43;;;;;;;15.70;72.80;98154.97;5124364;28;20043;-68
2021/05/01 02:20:39;;;;;;;7.85;4.45;;;;;;;15.54;72.97;98155.88;5128274;27;20707;-70
2021/05/01 02:23:06;;;;;;;11.43;5.85;;;;;;;15.50;73.17;98170.38;5129446;27;20588;-70
2021/05/01 02:25:32;;;;;;;9.90;5.10;;;;;;;15.41;73.41;98161.06;5126166;27;20453;-69
2021/05/01 02:27:58;;;;;;;9.20;4.88;;;;;;;15.38;73.62;98163.06;5126310;27;20044;-69
2021/05/01 02:30:26;;;;;;;8.95;5.22;;;;;;;15.33;73.82;98165.13;5124288;27;20712;-70
2021/05/01 02:32:53;;;;;;;8.20;4.47;;;;;;;15.29;73.93;98172.47;5128051;27;20882;-69
2021/05/01 02:35:20;;;;;;;9.55;4.47;;;;;;;15.27;73.84;98174.38;5128429;27;20047;-68
2021/05/01 02:37:48;;;;;;;7.90;4.15;;;;;;;15.20;74.04;98162.25;5126138;27;20036;-69
2021/05/01 02:40:15;;;;;;;8.75;5.03;;;;;;;15.13;74.15;98169.78;5125893;27;20039;-69
2021/05/01 02:42:43;;;;;;;8.25;4.45;;;;;;;15.06;74.48;98173.75;5126451;27;20047;-70
2021/05/01 02:45:10;;;;;;;7.30;3.88;;;;;;;14.99;74.48;98186.59;5124148;27;20046;-69
2021/05/01 02:47:37;;;;;;;11.95;4.72;;;;;;;14.98;74.51;98181.31;5129639;27;20499;-69
2021/05/01 02:50:03;;;;;;;8.88;5.18;;;;;;;14.96;74.36;98165.38;5126513;27;20040;-69
2021/05/01 02:52:29;;;;;;;8.55;5.20;;;;;;;14.89;74.76;98173.78;5126368;27;20055;-69
2021/05/01 02:54:55;;;;;;;9.27;4.90;;;;;;;14.86;75.04;98165.94;5127035;27;20516;-69
2021/05/01 02:57:21;;;;;;;7.75;4.95;;;;;;;14.80;75.24;98167.13;5127395;27;20143;-70
2021/05/01 02:59:47;;;;;;;12.15;6.10;;;;;;;14.74;75.36;98165.63;5128132;27;20041;-70
2021/05/01 03:02:13;;;;;;;9.43;5.40;;;;;;;14.74;75.29;98164.78;5123482;27;20496;-70
2021/05/01 03:04:38;;;;;;;7.65;4.80;;;;;;;14.78;74.98;98155.63;5125456;27;20054;-68
2021/05/01 03:07:04;;;;;;;9.73;4.97;;;;;;;14.83;74.78;98152.72;5127187;27;20590;-68
2021/05/01 03:09:30;;;;;;;8.02;4.85;;;;;;;14.81;74.54;98155.47;5125598;27;20051;-69
2021/05/01 03:11:57;;;;;;;8.52;5.07;;;;;;;14.73;75.24;98152.34;5128394;27;20098;-69
2021/05/01 03:14:25;;;;;;;9.35;4.70;;;;;;;14.73;74.90;98157.72;5126904;27;20054;-70
2021/05/01 03:16:51;;;;;;;8.98;4.65;;;;;;;14.73;74.65;98147.88;5122313;27;20495;-70
2021/05/01 03:19:17;;;;;;;7.90;4.57;;;;;;;14.80;74.78;98148.41;5125546;27;20048;-69
2021/05/01 03:21:42;;;;;;;10.88;6.22;;;;;;;14.85;74.60;98135.63;5127489;27;20134;-68
2021/05/01 03:24:10;;;;;;;8.80;5.45;;;;;;;14.88;74.68;98143.50;5127076;27;20047;-70
2021/05/01 03:26:35;;;;;;;7.72;5.75;;;;;;;14.95;74.59;98150.22;5127456;27;20040;-71
2021/05/01 03:29:03;;;;;;;10.70;5.68;;;;;;;14.92;74.86;98146.84;5125761;27;20394;-69
2021/05/01 03:31:28;;;;;;;9.45;5.35;;;;;;;14.87;74.67;98148.91;5112590;27;20052;-69
2021/05/01 03:33:54;;;;;;;8.50;5.40;;;;;;;14.81;75.05;98139.41;5112383;27;20043;-70
2021/05/01 03:36:20;;;;;;;11.98;5.45;;;;;;;14.71;75.56;98143.53;5113393;27;20050;-69
2021/05/01 03:38:45;;;;;;;10.25;5.70;;;;;;;14.60;75.74;98154.81;5112801;27;20059;-69
2021/05/01 03:41:11;;;;;;;10.18;5.95;;;;;;;14.53;76.21;98154.25;5111526;27;20051;-69
2021/05/01 03:43:37;;;;;;;11.15;5.97;;;;;;;14.49;76.29;98160.72;5111835;27;20054;-70
2021/05/01 03:46:03;;;;;;;9.32;5.47;;;;;;;14.54;75.97;98160.47;5109952;27;20050;-69
2021/05/01 03:48:29;;;;;;;9.43;4.80;;;;;;;14.57;75.95;98158.53;5113830;27;20050;-69
2021/05/01 03:50:55;;;;;;;10.55;5.65;;;;;;;14.52;75.79;98159.69;5112886;27;20054;-70
2021/05/01 03:53:21;;;;;;;8.48;5.65;;;;;;;14.46;76.02;98171.56;5111245;27;20066;-70
2021/05/01 03:55:47;;;;;;;7.93;5.30;;;;;;;14.42;76.21;98164.66;5112173;27;20855;-71
2021/05/01 03:58:13;;;;;;;11.43;5.50;;;;;;;14.45;76.07;98156.47;5112851;27;20039;-71
2021/05/01 04:00:39;;;;;;;7.72;4.75;;;;;;;14.42;76.53;98158.41;5109840;27;20040;-70
2021/05/01 04:03:05;;;;;;;10.90;5.53;;;;;;;14.35;76.38;98161.41;5111187;27;20126;-69
2021/05/01 04:05:31;;;;;;;10.88;6.18;;;;;;;14.36;76.22;98162.31;5111304;27;20047;-70
2021/05/01 04:07:57;;;;;;;13.18;4.85;;;;;;;14.30;76.45;98151.91;5109598;27;20040;-68
2021/05/01 04:10:23;;;;;;;9.90;5.00;;;;;;;14.30;76.34;98166.16;5110844;27;20058;-70
2021/05/01 04:12:48;;;;;;;8.73;4.90;;;;;;;14.32;76.53;98164.25;5113251;27;20043;-70
2021/05/01 04:15:16;;;;;;;8.23;4.68;;;;;;;14.30;76.69;98167.97;5107614;27;20607;-70
2021/05/01 04:17:43;;;;;;;6.78;4.88;;;;;;;14.24;76.63;98171.81;5110071;27;20177;-69
2021/05/01 04:20:11;;;;;;;9.65;5.18;;;;;;;14.21;76.79;98168.44;5109419;27;20059;-69
2021/05/01 04:22:37;;;;;;;9.50;4.87;;;;;;;14.17;77.06;98163.25;5110939;27;20435;-70
2021/05/01 04:25:04;;;;;;;10.65;5.45;;;;;;;14.13;77.30;98169.69;5112935;27;20112;-69
2021/05/01 04:27:30;;;;;;;8.38;5.18;;;;;;;14.14;77.38;98170.56;5111494;27;20047;-72
2021/05/01 04:29:55;;;;;;;8.20;5.45;;;;;;;14.11;77.41;98166.22;5109701;27;20131;-69
2021/05/01 04:32:21;;;;;;;11.70;5.50;;;;;;;14.09;77.73;98176.13;5108039;27;20044;-69
2021/05/01 04:34:47;;;;;;;12.77;5.35;;;;;;;14.09;78.35;98178.81;5111152;27;20096;-70
2021/05/01 04:37:14;;;;;;;8.65;4.93;;;;;;;14.12;77.82;98178.66;5112734;27;20047;-69
2021/05/01 04:39:39;;;;;;;6.90;4.40;;;;;;;14.25;77.65;98183.34;5112930;27;20066;-70
2021/05/01 04:42:06;;;;;;;9.35;5.22;;;;;;;14.37;77.02;98194.28;5108981;28;20100;-70
2021/05/01 04:44:32;;;;;;;9.90;5.60;;;;;;;14.45;76.58;98206.44;5111056;27;20378;-70
2021/05/01 04:46:58;;;;;;;13.07;5.70;;;;;;;14.53;76.35;98199.75;5107195;27;20069;-69
2021/05/01 04:49:24;;;;;;;10.82;5.40;;;;;;;14.55;76.69;98192.53;5112333;27;20119;-69
2021/05/01 04:51:49;;;;;;;9.23;5.82;;;;;;;14.52;77.20;98187.28;5111958;27;20092;-69
2021/05/01 04:54:16;;;;;;;12.07;6.03;;;;;;;14.53;77.49;98210.44;5109743;27;20050;-70
2021/05/01 04:56:42;;;;;;;10.50;5.78;;;;;;;14.53;77.80;98204.19;5111083;27;20035;-69
2021/05/01 04:59:08;;;;;;;8.90;5.70;;;;;;;14.56;77.60;98212.13;5111014;27;20400;-70
2021/05/01 05:01:34;;;;;;;11.10;5.85;;;;;;;14.58;77.71;98221.78;5108180;27;20043;-69
2021/05/01 05:04:00;;;;;;;10.77;5.60;;;;;;;14.60;77.33;98218.19;5111893;27;20036;-68
2021/05/01 05:06:26;;;;;;;10.40;5.75;;;;;;;14.63;77.44;98223.38;5110173;27;20605;-70
2021/05/01 05:08:51;;;;;;;10.00;5.50;;;;;;;14.65;78.15;98222.34;5110461;28;20070;-70
2021/05/01 05:11:18;;;;;;;9.10;5.55;;;;;;;14.70;77.58;98211.38;5109292;27;20051;-70
2021/05/01 05:13:44;;;;;;;9.00;5.07;;;;;;;14.79;77.19;98211.78;5112994;27;20405;-70
2021/05/01 05:16:10;;;;;;;10.57;4.70;;;;;;;14.88;76.36;98205.06;5108819;27;20082;-68
2021/05/01 05:18:38;;;;;;;11.38;4.97;;;;;;;15.00;75.55;98208.88;5109722;27;20062;-70
2021/05/01 05:21:04;;;;;;;10.50;4.70;;;;;;;15.11;75.05;98211.84;5110059;27;20703;-70
2021/05/01 05:23:30;;;;;;;8.07;4.90;;;;;;;15.21;74.59;98214.88;5111167;27;20081;-69
2021/05/01 05:25:55;;;;;;;11.07;4.45;;;;;;;15.30;74.21;98214.38;5110902;27;20057;-70
2021/05/01 05:28:23;;;;;;;10.85;5.32;;;;;;;15.41;73.65;98219.13;5111965;27;20487;-69
2021/05/01 05:30:48;;;;;;;13.10;5.50;;;;;;;15.51;73.28;98227.56;5105653;27;20040;-70
2021/05/01 05:33:14;;;;;;;8.95;4.60;;;;;;;15.62;73.05;98225.13;5109466;27;20052;-69
2021/05/01 05:35:41;;;;;;;9.88;5.28;;;;;;;15.70;72.73;98225.56;5111298;27;20067;-68
2021/05/01 05:38:06;;;;;;;8.38;4.28;;;;;;;15.75;72.94;98223.50;5111118;27;20050;-69
2021/05/01 05:40:33;;;;;;;8.60;4.40;;;;;;;15.85;72.69;98220.28;5110437;27;20048;-70
2021/05/01 05:43:00;;;;;;;8.23;4.68;;;;;;;15.90;72.42;98220.91;5107324;27;20315;-70
2021/05/01 05:45:30;;;;;;;8.95;4.78;;;;;;;15.97;71.89;98233.00;5107714;27;20047;-71
2021/05/01 05:47:55;;;;;;;11.43;4.60;;;;;;;16.07;71.78;98226.16;5109678;27;20067;-71
2021/05/01 05:50:22;;;;;;;9.18;4.55;;;;;;;16.12;71.35;98221.38;5110978;27;20512;-70
2021/05/01 05:52:48;;;;;;;9.95;4.68;;;;;;;16.17;70.91;98219.28;5110942;27;20043;-70
2021/05/01 05:55:14;;;;;;;8.07;4.90;;;;;;;16.21;70.85;98225.34;5108736;27;20043;-69
2021/05/01 05:57:47;;;;;;;11.00;4.72;;;;;;;16.26;70.77;98235.81;5109698;28;20046;-71
2021/05/01 06:00:14;;;;;;;6.40;4.47;;;;;;;16.31;70.50;98226.53;5107803;27;20063;-71
2021/05/01 06:02:41;;;;;;;9.40;4.57;;;;;;;16.32;70.32;98212.16;5110131;27;20517;-70
2021/05/01 06:05:11;;;;;;;8.73;4.63;;;;;;;16.34;70.46;98204.03;5110953;28;20062;-69
2021/05/01 06:07:40;;;;;;;7.82;4.22;;;;;;;16.42;70.16;98201.75;5108895;28;20058;-70
2021/05/01 06:10:09;;;;;;;9.82;4.60;;;;;;;16.50;69.71;98201.28;5108534;27;20128;-69
2021/05/01 06:12:35;;;;;;;7.82;5.03;;;;;;;16.49;70.01;98205.78;5110074;28;20035;-70
2021/05/01 06:15:04;;;;;;;11.00;4.93;;;;;;;16.54;69.99;98200.13;5108337;27;20051;-69
2021/05/01 06:17:29;;;;;;;;;;;;;;;16.68;69.58;98208.22;5108330;28;20055;-70
2021/05/01 06:19:57;;;;;;;8.32;4.65;;;;;;;16.84;68.93;98205.50;5108483;28;19941;-69
2021/05/01 06:22:24;;;;;;;10.20;4.80;;;;;;;16.97;68.66;98209.16;5108427;28;20043;-70
2021/05/01 06:24:51;;;;;;;10.38;4.80;;;;;;;17.12;68.31;98198.41;5109456;28;20274;-69
2021/05/01 06:27:17;;;;;;;8.60;4.68;;;;;;;17.28;68.34;98190.22;5110366;28;20048;-69
2021/05/01 06:29:44;;;;;;;9.15;4.90;;;;;;;17.42;68.13;98183.03;5111209;28;20151;-70
2021/05/01 06:32:11;;;;;;;9.00;4.97;;;;;;;17.60;67.79;98186.34;5105744;28;20126;-70
2021/05/01 06:34:37;;;;;;;7.40;4.82;;;;;;;17.79;67.55;98175.25;5109199;28;20374;-69
2021/05/01 06:37:04;;;;;;;9.27;4.82;;;;;;;17.94;67.03;98178.78;5110528;28;20050;-69
2021/05/01 06:39:33;;;;;;;7.95;4.40;;;;;;;18.17;65.91;98201.47;5109675;28;20509;-70
2021/05/01 06:42:00;;;;;;;;;;;;;;;18.32;65.20;98213.00;5109065;28;20053;-69
2021/05/01 06:44:40;;;;;;;8.43;4.90;;;;;;;18.36;64.94;98208.28;5108860;28;20328;-69
2021/05/01 06:47:08;;;;;;;9.30;4.93;;;;;;;18.34;64.77;98210.22;5105741;28;20043;-71
2021/05/01 06:49:42;;;;;;;11.80;5.60;;;;;;;18.32;64.16;98214.84;5110996;28;20126;-70
2021/05/01 06:52:11;;;;;;;10.75;4.82;;;;;;;18.40;64.32;98210.66;5110087;28;20040;-70
2021/05/01 06:54:37;;;;;;;9.65;5.32;;;;;;;18.55;64.49;98210.59;5109390;28;20678;-70
2021/05/01 06:57:03;;;;;;;10.02;5.32;;;;;;;18.72;64.34;98212.97;5108547;28;20048;-70
2021/05/01 06:59:30;;;;;;;8.52;4.70;;;;;;;18.88;63.63;98207.41;5110129;28;20546;-70
2021/05/01 07:01:59;;;;;;;11.90;5.63;;;;;;;19.04;63.25;98205.38;5106343;28;20046;-70
2021/05/01 07:04:25;;;;;;;8.18;4.97;;;;;;;19.15;62.61;98204.63;5110039;28;20066;-70
2021/05/01 07:06:55;;;;;;;10.65;4.75;;;;;;;19.20;62.15;98205.13;5112174;27;20515;-70
2021/05/01 07:09:22;;;;;;;7.63;4.82;;;;;;;19.31;61.89;98204.38;5110254;27;20100;-70
2021/05/01 07:11:48;;;;;;;11.55;4.57;;;;;;;19.33;61.99;98207.81;5113736;27;20104;-71
2021/05/01 07:14:14;;;;;;;11.07;5.20;;;;;;;19.37;61.94;98200.38;5112982;27;20071;-69
2021/05/01 07:16:41;;;;;;;10.27;5.60;;;;;;;19.43;60.53;98200.81;5112635;27;20043;-70
2021/05/01 07:19:08;;;;;;;11.48;5.75;;;;;;;19.59;60.24;98195.16;5111040;27;20089;-69
2021/05/01 07:21:34;;;;;;;11.10;5.07;;;;;;;19.60;60.33;98188.75;5112708;27;20055;-71
2021/05/01 07:24:00;;;;;;;12.27;7.07;;;;;;;19.44;60.75;98182.78;5112513;27;20047;-69
2021/05/01 07:26:29;;;;;;;9.88;5.50;;;;;;;19.31;61.28;98188.19;5113371;27;20042;-69
2021/05/01 07:28:56;;;;;;;13.10;7.15;;;;;;;19.24;60.97;98186.94;5114738;27;20063;-70
2021/05/01 07:31:27;;;;;;;12.73;6.40;;;;;;;19.18;61.21;98179.28;5109841;27;20040;-69
2021/05/01 07:33:57;;;;;;;10.43;5.93;;;;;;;19.15;61.62;98171.38;5108039;27;20415;-68
2021/05/01 07:36:28;;;;;;;11.48;5.40;;;;;;;19.26;62.12;98153.50;5112296;27;20134;-70
2021/05/01 07:38:58;;;;;;;9.05;5.13;;;;;;;19.46;60.99;98153.88;5109763;27;20568;-71
2021/05/01 07:41:25;;;;;;;7.05;4.70;;;;;;;19.61;61.10;98157.28;5114000;27;20047;-69
2021/05/01 07:43:53;;;;;;;8.90;5.00;;;;;;;19.78;60.52;98154.22;5110107;27;20043;-70
2021/05/01 07:46:23;;;;;;;9.52;4.60;;;;;;;19.98;59.89;98146.47;5108279;27;20130;-68
2021/05/01 07:48:49;;;;;;;10.00;5.10;;;;;;;20.13;58.62;98144.47;5112553;27;20050;-69
2021/05/01 07:51:15;;;;;;;9.25;4.63;;;;;;;20.28;58.46;98140.56;5110991;27;20057;-68
2021/05/01 07:53:42;;;;;;;14.07;5.28;;;;;;;20.43;57.17;98135.84;5113878;27;20473;-69
2021/05/01 07:56:08;;;;;;;11.85;5.25;;;;;;;20.55;57.07;98142.97;5108044;28;20039;-69
2021/05/01 07:58:33;;;;;;;8.98;4.60;;;;;;;20.59;56.43;98136.38;5107861;27;20047;-69
2021/05/01 08:01:00;;;;;;;11.52;4.70;;;;;;;20.58;56.97;98125.69;5108201;27;20043;-69
2021/05/01 08:03:26;;;;;;;8.93;4.63;;;;;;;20.45;57.27;98123.94;5111214;27;20401;-68
2021/05/01 08:05:51;;;;;;;9.73;4.70;;;;;;;20.26;57.49;98135.28;5112322;27;20044;-70
2021/05/01 08:08:17;;;;;;;11.23;4.88;;;;;;;20.24;56.97;98134.53;5110509;27;20043;-69
2021/05/01 08:10:43;;;;;;;8.65;5.03;;;;;;;20.33;57.71;98137.53;5111988;27;20032;-69
2021/05/01 08:13:09;;;;;;;8.25;4.78;;;;;;;20.43;57.17;98130.44;5111820;27;20180;-68
2021/05/01 08:15:36;;;;;;;8.43;5.00;;;;;;;20.52;56.81;98127.00;5110570;27;20135;-69
2021/05/01 08:18:05;;;;;;;14.57;4.88;;;;;;;20.55;54.10;98124.06;5112115;27;20047;-68
2021/05/01 08:20:31;;;;;;;13.20;4.63;;;;;;;20.53;54.06;98120.63;5110323;27;20108;-69
2021/05/01 08:22:57;;;;;;;13.20;5.05;;;;;;;20.53;56.34;98120.63;5110640;27;20043;-69
2021/05/01 08:25:23;;;;;;;13.52;5.15;;;;;;;20.47;56.00;98118.38;5111475;27;20460;-69
2021/05/01 08:27:49;;;;;;;9.73;4.60;;;;;;;20.55;55.76;98117.81;5111651;27;20032;-71
2021/05/01 08:30:17;;;;;;;13.40;4.57;;;;;;;20.69;53.86;98121.19;5110550;27;20153;-70
2021/05/01 08:32:43;;;;;;;11.45;4.78;;;;;;;20.75;53.05;98124.38;5102623;27;20479;-68
2021/05/01 08:35:12;;;;;;;12.85;4.43;;;;;;;20.70;53.42;98117.47;5109641;27;20168;-70
2021/05/01 08:37:38;;;;;;;11.23;5.13;;;;;;;20.70;53.44;98136.38;5111728;27;20762;-71
2021/05/01 08:40:06;;;;;;;10.73;4.07;;;;;;;20.67;53.62;98128.53;5105454;27;20568;-68
2021/05/01 08:42:31;;;;;;;12.38;5.10;;;;;;;20.66;53.23;98129.50;5110178;27;20058;-71
2021/05/01 08:45:01;;;;;;;10.52;4.70;;;;;;;21.05;54.66;98137.28;5101828;27;20055;-70
2021/05/01 08:47:33;;;;;;;15.35;4.80;;;;;;;21.21;53.25;98136.91;5104532;27;20134;-69
2021/05/01 08:50:03;;;;;;;13.05;4.80;;;;;;;21.25;52.54;98133.84;5105348;27;20127;-69
2021/05/01 08:52:30;;;;;;;17.15;4.65;;;;;;;21.39;52.04;98132.72;5109184;27;20052;-68
2021/05/01 08:54:56;;;;;;;13.90;4.85;;;;;;;21.45;50.63;98136.81;5105978;27;20063;-68
2021/05/01 08:57:27;;;;;;;14.00;4.90;;;;;;;21.47;49.38;98138.41;5102148;27;20125;-67
2021/05/01 08:59:57;;;;;;;17.73;4.82;;;;;;;21.33;46.19;98139.47;5099528;27;20569;-69
2021/05/01 09:02:28;;;;;;;13.88;4.43;;;;;;;21.21;46.61;98137.78;5103118;27;20481;-66
2021/05/01 09:04:56;;;;;;;12.77;5.05;;;;;;;21.25;48.19;98130.25;5105701;27;20048;-68
2021/05/01 09:07:25;;;;;;;13.88;4.32;;;;;;;21.42;47.21;98132.47;5101607;27;20047;-68
2021/05/01 09:09:57;;;;;;;12.80;4.82;;;;;;;21.53;49.35;98135.19;5101375;27;20166;-69
2021/05/01 09:12:43;;;;;;;14.50;5.38;;;;;;;21.66;50.90;98143.13;5105160;27;20046;-68
2021/05/01 09:15:12;;;;;;;14.15;4.50;;;;;;;21.79;51.40;98134.00;5103223;27;20051;-68
2021/05/01 09:17:40;;;;;;;16.20;4.80;;;;;;;21.77;48.49;98133.28;5050239;27;547662;-67
2021/05/01 09:20:09;;;;;;;20.03;4.87;;;;;;;21.60;48.43;98118.44;5067948;28;20170;-69
2021/05/01 09:22:51;;;;;;;13.88;4.43;;;;;;;21.67;48.79;98116.97;5070407;28;20075;-69
2021/05/01 09:25:19;;;;;;;13.18;4.70;;;;;;;21.80;49.74;98111.38;5073907;28;20452;-69
2021/05/01 09:31:04;;;;;;;17.23;6.00;;;;;;;21.54;49.40;98103.59;5075347;27;20409;-69
2021/05/01 09:33:31;;;;;;;18.40;4.72;;;;;;;21.61;48.25;98106.63;5080712;28;20382;-67
2021/05/01 09:36:04;;;;;;;15.60;4.68;;;;;;;21.80;49.28;98109.53;5081207;28;20040;-70
2021/05/01 10:32:15;;;;;;;13.88;4.57;;;;;;;24.42;41.16;98053.72;4976966;27;20410;-90
2021/05/01 10:34:43;;;;;;;16.63;5.45;;;;;;;24.25;42.87;98031.72;4957051;28;20150;-91
2021/05/01 10:37:12;;;;;;;17.40;5.00;;;;;;;24.50;41.25;98023.97;5035919;28;20840;-92
2021/05/01 10:39:45;;;;;;;14.27;5.30;;;;;;;24.57;40.96;98008.78;5030847;28;20073;-91
2021/05/01 10:42:13;;;;;;;17.77;5.28;;;;;;;24.71;41.36;98043.66;5031841;28;20065;-91
2021/05/01 10:44:39;;;;;;;;;;;;;;;24.96;39.85;98046.69;5032945;28;20093;-93
2021/05/01 10:47:09;;;;;;;13.25;5.03;;;;;;;24.87;42.38;98039.44;5032579;28;20398;-93
2021/05/01 10:49:36;;;;;;;14.30;5.50;;;;;;;24.96;40.69;98046.69;5026504;28;20049;-93
2021/05/01 10:52:14;;;;;;;15.25;4.90;;;;;;;24.99;39.47;98030.94;5035646;28;20072;-92
2021/05/01 10:54:55;;;;;;;16.95;5.15;;;;;;;24.60;40.70;98041.97;5030541;28;20053;-91
2021/05/01 10:57:22;;;;;;;16.48;5.28;;;;;;;24.80;40.83;98041.91;5032791;28;20050;-94
2021/05/01 10:59:57;;;;;;;19.10;4.88;;;;;;;24.89;40.18;98040.16;5029546;28;20061;-92
2021/05/01 11:02:34;;;;;;;17.95;5.30;;;;;;;24.94;39.79;98038.69;5032228;28;20092;-93
2021/05/01 11:05:03;;;;;;;18.55;5.00;;;;;;;24.84;39.00;98004.41;5026180;28;20046;-93
2021/05/01 11:07:45;;;;;;;16.08;4.93;;;;;;;24.83;38.58;98014.44;5025491;28;20535;-93
2021/05/01 11:10:15;;;;;;;18.38;4.80;;;;;;;24.82;38.89;98025.44;5027692;28;20046;-92
2021/05/01 11:12:50;;;;;;;14.85;4.72;;;;;;;24.75;39.00;98033.34;5033092;28;20132;-91
2021/05/01 11:15:20;;;;;;;14.25;4.57;;;;;;;24.86;38.29;98013.25;5028333;28;20041;-90
2021/05/01 11:17:51;;;;;;;16.08;5.20;;;;;;;25.07;38.07;98005.72;5032669;28;20113;-91
2021/05/01 11:20:20;;;;;;;14.75;4.97;;;;;;;25.16;37.71;98010.22;5029033;28;20088;-93
2021/05/01 11:22:50;;;;;;;17.67;5.15;;;;;;;24.98;38.12;97993.88;5030689;28;20053;-91
2021/05/01 11:25:18;;;;;;;16.75;5.22;;;;;;;25.21;38.39;98005.22;5031356;28;20517;-91
2021/05/01 11:27:46;;;;;;;14.80;4.50;;;;;;;24.87;37.85;97982.31;5031433;28;20065;-90
2021/05/01 11:30:15;;;;;;;18.45;7.25;;;;;;;24.67;37.99;97974.25;5030777;28;20112;-91
2021/05/01 11:32:42;;;;;;;17.75;7.97;;;;;;;24.48;37.84;97960.72;5032465;28;20177;-92
2021/05/01 11:35:11;;;;;;;15.45;7.22;;;;;;;24.37;38.09;97965.31;5030841;28;20041;-91
2021/05/01 11:37:40;;;;;;;13.65;5.68;;;;;;;24.38;37.75;97971.66;5031157;28;20463;-91
2021/05/01 11:40:08;;;;;;;15.68;5.78;;;;;;;23.92;39.12;97965.16;5031067;28;20526;-92
2021/05/01 11:42:37;;;;;;;18.35;5.43;;;;;;;23.78;39.56;97950.19;5022587;28;20042;-90
2021/05/01 11:45:06;;;;;;;18.40;5.30;;;;;;;23.79;39.44;97960.06;5020884;28;20076;-92
2021/05/01 11:47:33;;;;;;;14.13;5.00;;;;;;;23.91;39.31;97979.75;5017681;28;20054;-90
2021/05/01 11:49:59;;;;;;;18.50;5.50;;;;;;;23.93;39.94;98007.63;5017015;28;20444;-92
2021/05/01 11:52:38;;;;;;;12.52;4.25;;;;;;;23.85;39.45;98012.91;5011489;28;20041;-92
2021/05/01 11:55:23;;;;;;;15.45;4.88;;;;;;;23.68;40.09;98018.03;5015524;28;20052;-91
2021/05/01 11:57:54;;;;;;;14.32;5.43;;;;;;;23.60;40.40;98009.75;5018284;28;20069;-93
2021/05/01 12:00:28;;;;;;;13.00;4.75;;;;;;;23.32;40.52;97997.88;5019078;28;20379;-91
2021/05/01 12:02:55;;;;;;;17.45;5.07;;;;;;;23.30;41.07;97981.72;5019427;28;20057;-94
2021/05/01 12:05:23;;;;;;;19.05;5.28;;;;;;;23.28;41.37;98020.84;5018489;28;20368;-90
2021/05/01 12:07:54;;;;;;;20.08;5.40;;;;;;;23.19;41.28;98014.41;5018260;28;20048;-90
2021/05/01 12:10:22;;;;;;;14.65;5.47;;;;;;;22.97;41.66;97983.78;5018122;28;20125;-92
2021/05/01 12:12:55;;;;;;;11.93;5.30;;;;;;;22.79;42.24;97977.28;5030380;28;20042;-90
2021/05/01 12:15:30;;;;;;;17.77;5.32;;;;;;;22.70;42.74;97989.81;5016822;28;20041;-92
2021/05/01 12:17:56;;;;;;;15.63;5.70;;;;;;;22.29;43.78;97990.78;5018407;28;20050;-92
2021/05/01 12:20:24;;;;;;;15.85;5.57;;;;;;;22.20;44.70;98002.38;5019029;28;20392;-90
2021/05/01 12:22:50;;;;;;;15.70;6.00;;;;;;;22.16;44.41;98015.31;5017002;28;20484;-91
2021/05/01 12:25:46;;;;;;;21.35;6.50;;;;;;;22.29;45.46;98028.69;5017817;28;20046;-92
2021/05/01 12:28:12;;;;;;;18.00;6.38;;;;;;;22.34;45.27;98021.91;5015619;28;20046;-93
2021/05/01 12:31:00;;;;;;;18.42;6.30;;;;;;;22.15;45.53;98043.41;5016093;28;20064;-93
2021/05/01 12:33:50;;;;;;;18.13;5.93;;;;;;;21.79;46.48;98026.59;5008784;28;20050;-92